createdAt,value
2022-12-17T00:01:51.217Z,26.48
2022-12-17T00:04:37.901Z,24.05
2022-12-17T00:07:23.709Z,28.13
2022-12-17T00:10:09.225Z,30.00
2022-12-17T00:12:56.419Z,28.92
2022-12-17T00:15:42.873Z,31.13
2022-12-17T00:18:30.716Z,25.77
2022-12-17T00:21:18.348Z,32.85
2022-12-17T00:24:04.614Z,26.10
2022-12-17T00:26:50.621Z,24.73
2022-12-17T00:29:36.920Z,25.40
2022-12-17T00:32:23.587Z,31.73
2022-12-17T00:35:10.725Z,23.60
2022-12-17T00:37:56.217Z,16.52
2022-12-17T00:40:42.509Z,26.40
2022-12-17T00:43:31.902Z,22.55
2022-12-17T00:46:18.412Z,30.43
2022-12-17T00:49:04.187Z,27.08
2022-12-17T00:51:49.796Z,31.65
2022-12-17T00:54:35.381Z,18.10
2022-12-17T00:57:20.945Z,28.52
2022-12-17T01:00:06.707Z,36.50
2022-12-17T01:02:52.345Z,26.17
2022-12-17T01:05:38.478Z,20.75
2022-12-17T01:08:33.185Z,30.83
2022-12-17T01:11:20.509Z,26.02
2022-12-17T01:14:07.011Z,33.08
2022-12-17T01:16:53.508Z,29.58
2022-12-17T01:19:42.360Z,27.95
2022-12-17T01:22:28.981Z,28.30
2022-12-17T01:25:14.957Z,31.15
2022-12-17T01:28:00.498Z,25.77
2022-12-17T01:30:46.274Z,28.90
2022-12-17T01:33:32.020Z,28.25
2022-12-17T01:36:17.927Z,25.98
2022-12-17T01:39:03.793Z,24.65
2022-12-17T01:41:49.506Z,23.30
2022-12-17T01:45:03.155Z,30.30
2022-12-17T01:48:08.064Z,19.38
2022-12-17T01:50:57.180Z,29.25
2022-12-17T01:53:49.809Z,22.98
2022-12-17T01:56:36.451Z,26.73
2022-12-17T01:59:24.945Z,30.75
2022-12-17T02:02:11.255Z,26.23
2022-12-17T02:04:58.205Z,25.45
2022-12-17T02:08:14.883Z,25.50
2022-12-17T02:11:08.582Z,29.63
2022-12-17T02:14:00.555Z,33.65
2022-12-17T02:17:19.298Z,31.52
2022-12-17T02:20:31.716Z,30.25
2022-12-17T02:23:20.181Z,18.60
2022-12-17T02:26:33.020Z,24.65
2022-12-17T02:29:22.286Z,32.92
2022-12-17T02:32:09.267Z,24.27
2022-12-17T02:35:09.992Z,29.30
2022-12-17T02:37:55.676Z,26.77
2022-12-17T02:40:44.085Z,23.27
2022-12-17T02:43:30.911Z,24.15
2022-12-17T02:46:16.441Z,23.80
2022-12-17T02:49:02.172Z,18.98
2022-12-17T02:51:51.056Z,20.98
2022-12-17T02:54:36.748Z,25.17
2022-12-17T02:57:23.870Z,25.17
2022-12-17T03:00:09.622Z,25.10
2022-12-17T03:02:55.315Z,21.90
2022-12-17T03:05:45.554Z,24.70
2022-12-17T03:08:32.780Z,24.30
2022-12-17T03:11:18.511Z,23.33
2022-12-17T03:14:05.195Z,17.05
2022-12-17T03:16:50.704Z,21.10
2022-12-17T03:19:39.054Z,21.77
2022-12-17T03:22:24.604Z,20.60
2022-12-17T03:25:12.708Z,19.55
2022-12-17T03:28:00.231Z,19.40
2022-12-17T03:30:48.936Z,20.00
2022-12-17T03:33:35.825Z,21.38
2022-12-17T03:36:21.453Z,20.42
2022-12-17T03:39:07.479Z,19.30
2022-12-17T03:41:53.455Z,21.42
2022-12-17T03:44:39.672Z,25.58
2022-12-17T03:47:25.494Z,20.23
2022-12-17T03:50:11.043Z,16.58
2022-12-17T03:52:56.597Z,26.58
2022-12-17T03:55:41.924Z,29.20
2022-12-17T03:58:27.753Z,31.90
2022-12-17T04:01:13.845Z,28.90
2022-12-17T04:03:59.763Z,22.98
2022-12-17T04:06:45.725Z,30.73
2022-12-17T04:09:31.199Z,24.45
2022-12-17T04:12:16.604Z,22.42
2022-12-17T04:15:02.079Z,24.48
2022-12-17T04:17:50.309Z,16.73
2022-12-17T04:20:36.231Z,21.77
2022-12-17T04:23:21.876Z,20.50
2022-12-17T04:26:07.330Z,17.27
2022-12-17T04:28:52.647Z,28.52
2022-12-17T04:31:38.520Z,28.63
2022-12-17T04:34:23.936Z,27.00
2022-12-17T04:37:09.640Z,23.73
2022-12-17T04:39:55.219Z,24.02
2022-12-17T04:42:40.931Z,20.95
2022-12-17T04:45:27.139Z,25.00
2022-12-17T04:48:20.840Z,22.20
2022-12-17T04:51:06.536Z,21.05
2022-12-17T04:53:52.293Z,23.75
2022-12-17T04:56:38.796Z,16.23
2022-12-17T04:59:24.568Z,19.10
2022-12-17T05:02:10.274Z,23.67
2022-12-17T05:04:56.100Z,27.65
2022-12-17T05:07:41.505Z,24.55
2022-12-17T05:10:27.672Z,19.48
2022-12-17T05:13:18.339Z,16.42
2022-12-17T05:16:03.807Z,18.63
2022-12-17T05:18:49.894Z,20.60
2022-12-17T05:21:36.112Z,21.65
2022-12-17T05:24:21.427Z,25.45
2022-12-17T05:27:07.303Z,22.38
2022-12-17T05:29:53.027Z,25.80
2022-12-17T05:32:38.429Z,28.92
2022-12-17T05:35:24.693Z,19.52
2022-12-17T05:38:10.437Z,23.27
2022-12-17T05:41:09.755Z,29.95
2022-12-17T05:43:55.323Z,26.53
2022-12-17T05:46:41.273Z,22.77
2022-12-17T05:49:26.960Z,25.90
2022-12-17T05:52:12.549Z,22.95
2022-12-17T05:54:58.253Z,30.40
2022-12-17T05:57:43.859Z,27.25
2022-12-17T06:00:30.235Z,24.52
2022-12-17T06:03:20.991Z,28.45
2022-12-17T06:06:07.449Z,22.00
2022-12-17T06:08:53.168Z,30.25
2022-12-17T06:11:38.927Z,28.17
2022-12-17T06:14:24.713Z,29.60
2022-12-17T06:17:10.127Z,25.33
2022-12-17T06:19:57.013Z,26.48
2022-12-17T06:22:42.784Z,21.67
2022-12-17T06:25:28.569Z,22.65
2022-12-17T06:28:22.826Z,27.08
2022-12-17T06:31:12.618Z,19.50
2022-12-17T06:33:58.977Z,22.38
2022-12-17T06:36:45.162Z,26.23
2022-12-17T06:39:31.090Z,19.80
2022-12-17T06:42:19.494Z,17.15
2022-12-17T06:45:06.457Z,20.05
2022-12-17T06:47:52.466Z,23.55
2022-12-17T06:50:38.054Z,21.73
2022-12-17T06:53:25.883Z,25.80
2022-12-17T06:56:12.136Z,21.85
2022-12-17T06:58:57.981Z,21.50
2022-12-17T07:01:43.881Z,14.02
2022-12-17T07:04:30.182Z,16.90
2022-12-17T07:07:17.401Z,18.90
2022-12-17T07:10:06.842Z,28.42
2022-12-17T07:12:54.810Z,21.05
2022-12-17T07:15:40.369Z,24.20
2022-12-17T07:18:26.745Z,26.23
2022-12-17T07:21:12.618Z,22.83
2022-12-17T07:24:01.610Z,21.40
2022-12-17T07:26:47.538Z,22.50
2022-12-17T07:29:33.043Z,27.17
2022-12-17T07:32:18.858Z,21.75
2022-12-17T07:35:04.498Z,16.20
2022-12-17T07:37:54.772Z,21.98
2022-12-17T07:40:40.672Z,25.13
2022-12-17T07:43:32.308Z,17.40
2022-12-17T07:46:19.557Z,21.45
2022-12-17T07:49:05.036Z,18.52
2022-12-17T07:51:50.740Z,23.00
2022-12-17T07:54:36.393Z,26.08
2022-12-17T07:57:21.903Z,24.25
2022-12-17T08:00:07.787Z,22.05
2022-12-17T08:02:53.543Z,16.80
2022-12-17T08:05:39.315Z,25.58
2022-12-17T08:08:29.460Z,18.95
2022-12-17T08:11:14.964Z,24.05
2022-12-17T08:14:00.812Z,12.68
2022-12-17T08:16:46.536Z,22.95
2022-12-17T08:19:32.715Z,23.45
2022-12-17T08:22:18.347Z,21.67
2022-12-17T08:25:04.338Z,18.90
2022-12-17T08:27:49.994Z,22.90
2022-12-17T08:30:35.757Z,20.63
2022-12-17T08:33:29.266Z,24.52
2022-12-17T08:36:16.139Z,20.85
2022-12-17T08:39:02.217Z,20.27
2022-12-17T08:41:54.024Z,18.85
2022-12-17T08:44:40.397Z,24.00
2022-12-17T08:47:25.953Z,23.23
2022-12-17T08:50:11.713Z,18.77
2022-12-17T08:52:57.685Z,20.40
2022-12-17T08:55:43.294Z,21.05
2022-12-17T08:58:28.884Z,19.77
2022-12-17T09:01:17.657Z,19.83
2022-12-17T09:04:04.685Z,19.88
2022-12-17T09:06:50.726Z,22.17
2022-12-17T09:09:36.445Z,19.45
2022-12-17T09:12:22.095Z,15.65
2022-12-17T09:15:07.942Z,12.88
2022-12-17T09:17:53.539Z,19.45
2022-12-17T09:20:39.152Z,19.15
2022-12-17T09:23:24.798Z,24.05
2022-12-17T09:26:14.651Z,21.55
2022-12-17T09:29:00.740Z,20.35
2022-12-17T09:31:46.195Z,26.77
2022-12-17T09:34:32.031Z,22.05
2022-12-17T09:37:17.806Z,16.35
2022-12-17T09:40:03.343Z,11.07
2022-12-17T09:43:08.219Z,17.08
2022-12-17T09:45:56.966Z,18.02
2022-12-17T09:48:50.883Z,21.45
2022-12-17T09:51:48.014Z,20.02
2022-12-17T09:54:46.709Z,11.02
2022-12-17T09:57:36.177Z,23.50
2022-12-17T10:00:48.943Z,31.87
2022-12-17T10:03:42.168Z,15.25
2022-12-17T10:06:32.463Z,16.50
2022-12-17T10:09:20.633Z,17.90
2022-12-17T10:12:06.656Z,11.95
2022-12-17T10:14:52.398Z,21.30
2022-12-17T10:17:42.568Z,21.05
2022-12-17T10:20:43.251Z,20.48
2022-12-17T10:23:29.111Z,21.50
2022-12-17T10:26:17.315Z,24.05
2022-12-17T10:29:02.894Z,24.20
2022-12-17T10:31:49.339Z,24.60
2022-12-17T10:34:37.766Z,23.02
2022-12-17T10:37:25.265Z,17.85
2022-12-17T10:40:17.436Z,21.35
2022-12-17T10:43:03.893Z,19.13
2022-12-17T10:45:49.140Z,19.15
2022-12-17T10:49:00.854Z,20.23
2022-12-17T10:51:56.757Z,20.20
2022-12-17T10:54:49.304Z,23.85
2022-12-17T10:57:57.255Z,23.15
2022-12-17T11:00:50.523Z,19.05
2022-12-17T11:03:45.397Z,22.48
2022-12-17T11:06:51.936Z,27.35
2022-12-17T11:10:08.611Z,28.02
2022-12-17T11:13:06.907Z,22.70
2022-12-17T11:15:59.686Z,19.75
2022-12-17T11:18:50.231Z,35.85
2022-12-17T11:21:48.984Z,21.88
2022-12-17T11:24:52.470Z,20.20
2022-12-17T11:27:44.282Z,23.80
2022-12-17T11:30:31.557Z,25.92
2022-12-17T11:33:40.461Z,22.80
2022-12-17T11:37:01.857Z,24.42
2022-12-17T11:40:11.535Z,16.23
2022-12-17T11:43:08.725Z,20.00
2022-12-17T11:46:18.380Z,23.65
2022-12-17T11:49:15.539Z,19.15
2022-12-17T11:52:18.510Z,14.02
2022-12-17T11:55:07.165Z,20.42
2022-12-17T11:58:14.435Z,20.95
2022-12-17T12:01:37.725Z,21.92
2022-12-17T12:04:56.918Z,23.58
2022-12-17T12:08:05.595Z,23.48
2022-12-17T12:11:07.137Z,19.73
2022-12-17T12:14:14.032Z,22.48
2022-12-17T12:17:30.106Z,21.10
2022-12-17T12:20:22.134Z,20.63
2022-12-17T12:23:21.442Z,28.27
2022-12-17T12:26:38.329Z,21.73
2022-12-17T12:29:43.134Z,23.75
2022-12-17T12:32:51.851Z,25.33
2022-12-17T12:35:42.878Z,22.27
2022-12-17T12:38:44.321Z,17.88
2022-12-17T12:42:04.507Z,21.40
2022-12-17T12:45:35.401Z,17.02
2022-12-17T12:48:58.299Z,23.20
2022-12-17T12:51:52.602Z,23.20
2022-12-17T12:54:46.471Z,28.88
2022-12-17T12:57:55.955Z,24.15
2022-12-17T13:00:50.043Z,25.35
2022-12-17T13:03:46.158Z,21.35
2022-12-17T13:06:34.919Z,21.27
2022-12-17T13:09:21.005Z,21.42
2022-12-17T13:11:56.823Z,23.98
2022-12-17T13:15:02.992Z,19.25
2022-12-17T13:17:36.920Z,19.42
2022-12-17T13:20:24.563Z,17.75
2022-12-17T13:23:04.598Z,22.30
2022-12-17T13:25:32.113Z,22.25
2022-12-17T13:27:59.564Z,23.15
2022-12-17T13:30:32.855Z,24.60
2022-12-17T13:33:29.987Z,26.85
2022-12-17T13:36:10.657Z,28.65
2022-12-17T13:39:22.013Z,20.95
2022-12-17T13:41:55.575Z,27.13
2022-12-17T13:44:31.673Z,21.83
2022-12-17T13:46:59.012Z,23.60
2022-12-17T13:49:29.171Z,25.00
2022-12-17T13:54:45.224Z,16.60
2022-12-17T13:57:16.576Z,25.27
2022-12-17T13:59:52.512Z,33.33
2022-12-17T14:02:30.203Z,28.88
2022-12-17T14:05:08.165Z,25.33
2022-12-17T14:07:39.213Z,21.73
2022-12-17T14:10:15.879Z,22.13
2022-12-17T14:12:43.624Z,20.52
2022-12-17T14:15:32.141Z,24.20
2022-12-17T14:17:59.781Z,27.98
2022-12-17T14:20:34.280Z,28.88
2022-12-17T14:23:28.645Z,26.20
2022-12-17T14:25:56.651Z,26.67
2022-12-17T14:28:25.561Z,27.92
2022-12-17T14:31:25.492Z,26.38
2022-12-17T14:33:43.367Z,20.02
2022-12-17T14:36:21.323Z,31.70
2022-12-17T14:39:00.671Z,21.40
2022-12-17T14:41:47.648Z,27.63
2022-12-17T14:44:22.013Z,29.35
2022-12-17T14:46:50.663Z,26.20
2022-12-17T14:49:22.286Z,22.80
2022-12-17T14:51:50.311Z,30.75
2022-12-17T14:54:30.027Z,22.80
2022-12-17T14:56:59.501Z,26.20
2022-12-17T14:59:35.318Z,25.30
2022-12-17T15:02:13.561Z,22.83
2022-12-17T15:04:41.018Z,22.33
2022-12-17T15:07:12.062Z,26.67
2022-12-17T15:09:44.374Z,23.58
2022-12-17T15:12:11.709Z,27.10
2022-12-17T15:14:38.746Z,23.23
2022-12-17T15:17:06.137Z,26.05
2022-12-17T15:19:33.334Z,24.42
2022-12-17T15:22:00.647Z,24.60
2022-12-17T15:24:27.669Z,23.42
2022-12-17T15:26:55.101Z,25.55
2022-12-17T15:29:22.243Z,30.33
2022-12-17T15:31:49.438Z,27.52
2022-12-17T15:34:16.488Z,24.27
2022-12-17T15:36:43.514Z,24.55
2022-12-17T15:39:11.372Z,27.00
2022-12-17T15:41:57.150Z,27.02
2022-12-17T15:44:24.137Z,24.83
2022-12-17T15:46:51.421Z,21.33
2022-12-17T15:49:18.497Z,22.52
2022-12-17T15:51:45.503Z,24.30
2022-12-17T15:54:12.765Z,29.27
2022-12-17T15:56:39.978Z,31.33
2022-12-17T15:59:07.200Z,28.20
2022-12-17T16:01:35.429Z,24.30
2022-12-17T16:04:02.678Z,21.83
2022-12-17T16:06:30.849Z,25.27
2022-12-17T16:08:58.161Z,31.63
2022-12-17T16:11:25.287Z,20.92
2022-12-17T16:13:56.366Z,25.13
2022-12-17T16:16:24.821Z,29.63
2022-12-17T16:18:52.423Z,25.63
2022-12-17T16:21:19.584Z,22.88
2022-12-17T16:23:46.803Z,13.93
2022-12-17T16:26:14.026Z,28.55
2022-12-17T16:28:44.093Z,23.83
2022-12-17T16:31:14.110Z,32.05
2022-12-17T16:33:42.840Z,26.92
2022-12-17T16:36:13.394Z,30.08
2022-12-17T16:38:45.906Z,25.40
2022-12-17T16:41:14.447Z,35.25
2022-12-17T16:43:42.273Z,30.20
2022-12-17T16:46:30.024Z,28.73
2022-12-17T16:48:59.297Z,35.13
2022-12-17T16:51:29.588Z,32.40
2022-12-17T16:53:58.078Z,34.83
2022-12-17T16:56:27.883Z,28.50
2022-12-17T16:58:56.037Z,28.33
2022-12-17T17:01:26.768Z,30.13
2022-12-17T17:03:54.706Z,28.60
2022-12-17T17:06:22.581Z,27.95
2022-12-17T17:08:50.463Z,29.52
2022-12-17T17:11:21.513Z,29.10
2022-12-17T17:13:51.653Z,26.95
2022-12-17T17:16:21.118Z,23.10
2022-12-17T17:18:48.302Z,16.87
2022-12-17T17:21:16.070Z,29.27
2022-12-17T17:23:43.296Z,33.28
2022-12-17T17:26:10.798Z,33.63
2022-12-17T17:28:39.039Z,30.27
2022-12-17T17:31:08.398Z,26.17
2022-12-17T17:33:38.740Z,27.17
2022-12-17T17:36:07.078Z,27.17
2022-12-17T17:38:35.999Z,29.23
2022-12-17T17:41:04.745Z,22.45
2022-12-17T17:43:31.997Z,31.55
2022-12-17T17:46:14.328Z,26.77
2022-12-17T17:48:42.186Z,23.45
2022-12-17T17:51:16.385Z,32.85
2022-12-17T17:53:43.855Z,32.00
2022-12-17T17:56:17.179Z,31.48
2022-12-17T17:58:49.783Z,29.58
2022-12-17T18:01:42.885Z,32.83
2022-12-17T18:04:13.274Z,38.03
2022-12-17T18:09:28.732Z,19.95
2022-12-17T18:11:55.751Z,34.28
2022-12-17T18:14:23.049Z,39.00
2022-12-17T18:16:50.134Z,34.28
2022-12-17T18:19:23.646Z,37.28
2022-12-17T18:21:50.791Z,35.63
2022-12-17T18:24:22.677Z,36.72
2022-12-17T18:26:51.842Z,35.75
2022-12-17T18:29:26.866Z,35.85
2022-12-17T18:31:54.101Z,33.83
2022-12-17T18:34:26.838Z,31.95
2022-12-17T18:36:54.433Z,40.22
2022-12-17T18:39:23.857Z,33.88
2022-12-17T18:42:10.106Z,32.92
2022-12-17T18:44:39.900Z,36.40
2022-12-17T18:47:08.034Z,35.73
2022-12-17T18:49:35.834Z,37.03
2022-12-17T18:52:04.041Z,33.30
2022-12-17T18:54:31.920Z,40.85
2022-12-17T18:57:01.631Z,39.50
2022-12-17T18:59:30.739Z,35.42
2022-12-17T19:01:59.178Z,38.70
2022-12-17T19:04:27.101Z,37.30
2022-12-17T19:06:54.323Z,42.80
2022-12-17T19:09:37.127Z,41.65
2022-12-17T19:12:06.040Z,26.88
2022-12-17T19:14:34.770Z,43.10
2022-12-17T19:17:02.404Z,44.35
2022-12-17T19:19:29.644Z,47.20
2022-12-17T19:21:58.860Z,48.58
2022-12-17T19:24:26.490Z,37.23
2022-12-17T19:26:53.710Z,43.60
2022-12-17T19:29:21.207Z,45.88
2022-12-17T19:31:48.750Z,53.45
2022-12-17T19:34:17.289Z,39.03
2022-12-17T19:36:45.307Z,37.55
2022-12-17T19:39:15.373Z,38.42
2022-12-17T19:41:42.523Z,42.97
2022-12-17T19:44:13.714Z,31.67
2022-12-17T19:46:40.939Z,34.60
2022-12-17T19:49:10.945Z,37.78
2022-12-17T19:51:40.543Z,40.47
2022-12-17T19:54:09.122Z,35.40
2022-12-17T19:56:37.126Z,37.88
2022-12-17T19:59:07.813Z,43.45
2022-12-17T20:04:07.484Z,37.28
2022-12-17T20:06:35.514Z,40.70
2022-12-17T20:09:05.157Z,39.30
2022-12-17T20:11:35.551Z,36.17
2022-12-17T20:14:14.825Z,29.98
2022-12-17T20:16:44.397Z,38.25
2022-12-17T20:19:14.774Z,38.38
2022-12-17T20:21:42.571Z,34.60
2022-12-17T20:24:11.076Z,18.80
2022-12-17T20:26:38.901Z,34.13
2022-12-17T20:29:06.377Z,36.90
2022-12-17T20:31:34.406Z,35.08
2022-12-17T20:34:03.682Z,32.17
2022-12-17T20:36:30.736Z,37.25
2022-12-17T20:38:57.825Z,32.95
2022-12-17T20:41:26.934Z,38.70
2022-12-17T20:43:54.931Z,29.65
2022-12-17T20:46:25.095Z,33.63
2022-12-17T20:51:23.569Z,26.23
2022-12-17T20:53:52.566Z,39.75
2022-12-17T20:59:00.246Z,29.25
2022-12-17T21:01:29.077Z,31.90
2022-12-17T21:03:56.960Z,35.97
2022-12-17T21:06:25.034Z,38.90
2022-12-17T21:08:54.297Z,30.98
2022-12-17T21:11:27.407Z,17.03
2022-12-17T21:13:55.456Z,31.33
2022-12-17T21:16:25.172Z,36.13
2022-12-17T21:18:57.070Z,36.08
2022-12-17T21:21:27.194Z,40.83
2022-12-17T21:23:55.127Z,24.65
2022-12-17T21:26:23.513Z,12.05
2022-12-17T21:28:52.580Z,35.10
2022-12-17T21:31:23.785Z,27.25
2022-12-17T21:33:52.736Z,36.40
2022-12-17T21:36:21.281Z,34.00
2022-12-17T21:38:49.820Z,23.60
2022-12-17T21:41:23.354Z,31.85
2022-12-17T21:44:01.886Z,37.08
2022-12-17T21:46:30.012Z,33.05
2022-12-17T21:48:59.479Z,25.45
2022-12-17T21:51:27.895Z,22.17
2022-12-17T21:53:57.301Z,29.42
2022-12-17T21:56:24.529Z,31.70
2022-12-17T21:58:57.192Z,32.15
2022-12-17T22:01:27.409Z,29.80
2022-12-17T22:03:56.991Z,33.08
2022-12-17T22:06:27.076Z,36.10
2022-12-17T22:09:00.838Z,34.17
2022-12-17T22:11:36.108Z,29.27
2022-12-17T22:14:08.118Z,34.42
2022-12-17T22:16:39.896Z,29.92
2022-12-17T22:19:12.237Z,31.67
2022-12-17T22:21:42.392Z,28.58
2022-12-17T22:29:09.902Z,32.47
2022-12-17T22:31:55.396Z,12.65
2022-12-17T22:36:16.435Z,31.70
2022-12-17T22:40:48.606Z,30.55
2022-12-17T22:44:31.259Z,26.10
2022-12-17T22:44:35.842Z,33.10
2022-12-17T22:45:49.467Z,29.17
2022-12-17T22:48:16.607Z,29.13
2022-12-17T22:50:48.452Z,25.38
2022-12-17T22:53:30.854Z,31.85
2022-12-17T22:56:14.590Z,23.13
2022-12-17T22:58:46.718Z,32.47
2022-12-17T23:01:18.287Z,26.25
2022-12-17T23:03:49.823Z,31.73
2022-12-17T23:06:18.126Z,18.08
2022-12-17T23:08:45.242Z,27.58
2022-12-17T23:11:21.824Z,22.08
2022-12-17T23:13:48.906Z,26.98
2022-12-17T23:16:16.752Z,22.63
2022-12-17T23:18:45.330Z,32.45
2022-12-17T23:21:23.940Z,29.90
2022-12-17T23:23:52.125Z,15.50
2022-12-17T23:26:22.071Z,24.27
2022-12-17T23:28:52.400Z,27.95
2022-12-17T23:31:21.154Z,21.05
2022-12-17T23:33:48.117Z,25.15
2022-12-17T23:36:17.759Z,30.23
2022-12-17T23:38:46.241Z,30.40
2022-12-17T23:41:19.802Z,25.92
2022-12-17T23:43:48.242Z,25.63
2022-12-17T23:46:16.801Z,27.80
2022-12-17T23:48:45.818Z,25.58
2022-12-17T23:51:15.452Z,16.87
2022-12-17T23:53:43.200Z,26.23
2022-12-17T23:56:10.398Z,21.25
2022-12-17T23:58:38.972Z,24.95
